sensor_id;sensor_type;location;lat;lon;timestamp;P1;durP1;ratioP1;P2;durP2;ratioP2
80117;SDS011;69424;48.770;-1.564;2023-05-07T00:00:37;5.30;;;1.50;;
80117;SDS011;69424;48.770;-1.564;2023-05-07T00:03:20;9.60;;;1.90;;
80117;SDS011;69424;48.770;-1.564;2023-05-07T00:05:49;4.30;;;1.40;;
80117;SDS011;69424;48.770;-1.564;2023-05-07T00:08:17;6.30;;;1.20;;
80117;SDS011;69424;48.770;-1.564;2023-05-07T00:10:45;7.10;;;1.50;;
80117;SDS011;69424;48.770;-1.564;2023-05-07T00:13:14;4.30;;;1.40;;
80117;SDS011;69424;48.770;-1.564;2023-05-07T00:15:42;4.90;;;1.50;;
80117;SDS011;69424;48.770;-1.564;2023-05-07T00:18:10;6.30;;;2.70;;
80117;SDS011;69424;48.770;-1.564;2023-05-07T00:20:38;3.60;;;1.40;;
80117;SDS011;69424;48.770;-1.564;2023-05-07T00:23:07;2.60;;;1.10;;
80117;SDS011;69424;48.770;-1.564;2023-05-07T00:25:35;5.50;;;1.80;;
80117;SDS011;69424;48.770;-1.564;2023-05-07T00:28:03;4.10;;;1.20;;
80117;SDS011;69424;48.770;-1.564;2023-05-07T00:30:31;5.60;;;1.20;;
80117;SDS011;69424;48.770;-1.564;2023-05-07T00:32:59;4.70;;;1.10;;
80117;SDS011;69424;48.770;-1.564;2023-05-07T00:35:28;3.70;;;1.40;;
80117;SDS011;69424;48.770;-1.564;2023-05-07T00:37:57;4.30;;;1.50;;
80117;SDS011;69424;48.770;-1.564;2023-05-07T00:40:25;5.60;;;1.40;;
80117;SDS011;69424;48.770;-1.564;2023-05-07T00:42:53;8.20;;;2.10;;
80117;SDS011;69424;48.770;-1.564;2023-05-07T00:45:27;6.40;;;1.80;;
80117;SDS011;69424;48.770;-1.564;2023-05-07T00:47:57;5.30;;;1.90;;
80117;SDS011;69424;48.770;-1.564;2023-05-07T00:50:28;3.80;;;1.30;;
80117;SDS011;69424;48.770;-1.564;2023-05-07T00:52:57;5.70;;;1.10;;
80117;SDS011;69424;48.770;-1.564;2023-05-07T00:55:26;4.00;;;1.00;;
80117;SDS011;69424;48.770;-1.564;2023-05-07T00:57:54;2.80;;;1.20;;
80117;SDS011;69424;48.770;-1.564;2023-05-07T01:00:23;4.30;;;1.50;;
80117;SDS011;69424;48.770;-1.564;2023-05-07T01:02:52;3.90;;;1.70;;
80117;SDS011;69424;48.770;-1.564;2023-05-07T01:05:22;4.80;;;1.30;;
80117;SDS011;69424;48.770;-1.564;2023-05-07T01:07:52;8.20;;;1.60;;
80117;SDS011;69424;48.770;-1.564;2023-05-07T01:10:22;5.30;;;1.50;;
80117;SDS011;69424;48.770;-1.564;2023-05-07T01:12:52;3.60;;;0.90;;
80117;SDS011;69424;48.770;-1.564;2023-05-07T01:15:21;4.70;;;1.10;;
80117;SDS011;69424;48.770;-1.564;2023-05-07T01:17:50;4.70;;;1.60;;
80117;SDS011;69424;48.770;-1.564;2023-05-07T01:20:23;3.00;;;1.30;;
80117;SDS011;69424;48.770;-1.564;2023-05-07T01:22:52;5.60;;;1.40;;
80117;SDS011;69424;48.770;-1.564;2023-05-07T01:25:21;4.40;;;1.50;;
80117;SDS011;69424;48.770;-1.564;2023-05-07T01:27:51;3.80;;;1.80;;
80117;SDS011;69424;48.770;-1.564;2023-05-07T01:30:20;3.70;;;1.40;;
80117;SDS011;69424;48.770;-1.564;2023-05-07T01:32:56;3.60;;;1.70;;
80117;SDS011;69424;48.770;-1.564;2023-05-07T01:35:34;3.70;;;1.70;;
80117;SDS011;69424;48.770;-1.564;2023-05-07T01:38:06;2.70;;;2.20;;
80117;SDS011;69424;48.770;-1.564;2023-05-07T01:40:35;3.60;;;2.30;;
80117;SDS011;69424;48.770;-1.564;2023-05-07T01:43:04;4.90;;;2.30;;
80117;SDS011;69424;48.770;-1.564;2023-05-07T01:45:34;2.40;;;1.70;;
80117;SDS011;69424;48.770;-1.564;2023-05-07T01:48:03;3.40;;;1.80;;
80117;SDS011;69424;48.770;-1.564;2023-05-07T01:50:32;2.20;;;1.70;;
80117;SDS011;69424;48.770;-1.564;2023-05-07T01:53:01;3.20;;;2.00;;
80117;SDS011;69424;48.770;-1.564;2023-05-07T01:55:30;3.30;;;1.90;;
80117;SDS011;69424;48.770;-1.564;2023-05-07T01:57:58;3.10;;;1.70;;
80117;SDS011;69424;48.770;-1.564;2023-05-07T02:00:26;2.60;;;1.80;;
80117;SDS011;69424;48.770;-1.564;2023-05-07T02:02:55;3.80;;;2.10;;
80117;SDS011;69424;48.770;-1.564;2023-05-07T02:05:28;3.20;;;2.00;;
80117;SDS011;69424;48.770;-1.564;2023-05-07T02:08:04;6.00;;;2.30;;
80117;SDS011;69424;48.770;-1.564;2023-05-07T02:10:32;4.50;;;2.20;;
80117;SDS011;69424;48.770;-1.564;2023-05-07T02:13:01;4.80;;;2.00;;
80117;SDS011;69424;48.770;-1.564;2023-05-07T02:15:30;4.30;;;1.70;;
80117;SDS011;69424;48.770;-1.564;2023-05-07T02:18:01;3.10;;;1.90;;
80117;SDS011;69424;48.770;-1.564;2023-05-07T02:20:31;2.20;;;1.60;;
80117;SDS011;69424;48.770;-1.564;2023-05-07T02:23:00;4.00;;;1.80;;
80117;SDS011;69424;48.770;-1.564;2023-05-07T02:25:29;3.70;;;1.90;;
80117;SDS011;69424;48.770;-1.564;2023-05-07T02:27:58;3.30;;;1.80;;
80117;SDS011;69424;48.770;-1.564;2023-05-07T02:30:38;4.30;;;2.00;;
80117;SDS011;69424;48.770;-1.564;2023-05-07T02:33:08;1.80;;;1.30;;
80117;SDS011;69424;48.770;-1.564;2023-05-07T02:35:37;2.60;;;1.70;;
80117;SDS011;69424;48.770;-1.564;2023-05-07T02:38:05;2.30;;;1.30;;
80117;SDS011;69424;48.770;-1.564;2023-05-07T02:40:33;2.10;;;1.40;;
80117;SDS011;69424;48.770;-1.564;2023-05-07T02:43:01;2.60;;;1.40;;
80117;SDS011;69424;48.770;-1.564;2023-05-07T02:45:30;3.80;;;1.80;;
80117;SDS011;69424;48.770;-1.564;2023-05-07T02:47:58;2.40;;;1.40;;
80117;SDS011;69424;48.770;-1.564;2023-05-07T02:50:26;2.00;;;1.30;;
80117;SDS011;69424;48.770;-1.564;2023-05-07T02:52:55;4.10;;;1.80;;
80117;SDS011;69424;48.770;-1.564;2023-05-07T02:55:23;2.10;;;1.20;;
80117;SDS011;69424;48.770;-1.564;2023-05-07T02:57:51;1.90;;;1.40;;
80117;SDS011;69424;48.770;-1.564;2023-05-07T03:00:19;2.10;;;1.40;;
80117;SDS011;69424;48.770;-1.564;2023-05-07T03:02:57;1.90;;;1.40;;
80117;SDS011;69424;48.770;-1.564;2023-05-07T03:05:25;1.30;;;1.20;;
80117;SDS011;69424;48.770;-1.564;2023-05-07T03:07:53;3.30;;;1.10;;
80117;SDS011;69424;48.770;-1.564;2023-05-07T03:10:21;1.70;;;1.20;;
80117;SDS011;69424;48.770;-1.564;2023-05-07T03:12:50;1.40;;;1.20;;
80117;SDS011;69424;48.770;-1.564;2023-05-07T03:15:18;2.50;;;1.60;;
80117;SDS011;69424;48.770;-1.564;2023-05-07T03:17:46;4.30;;;1.60;;
80117;SDS011;69424;48.770;-1.564;2023-05-07T03:20:15;2.60;;;1.50;;
80117;SDS011;69424;48.770;-1.564;2023-05-07T03:22:43;1.80;;;1.50;;
80117;SDS011;69424;48.770;-1.564;2023-05-07T03:25:12;1.80;;;1.60;;
80117;SDS011;69424;48.770;-1.564;2023-05-07T03:27:41;2.60;;;2.00;;
80117;SDS011;69424;48.770;-1.564;2023-05-07T03:30:10;2.70;;;2.20;;
80117;SDS011;69424;48.770;-1.564;2023-05-07T03:32:39;3.40;;;2.20;;
80117;SDS011;69424;48.770;-1.564;2023-05-07T03:35:09;2.00;;;1.70;;
80117;SDS011;69424;48.770;-1.564;2023-05-07T03:37:38;1.80;;;1.40;;
80117;SDS011;69424;48.770;-1.564;2023-05-07T03:40:07;2.80;;;1.60;;
80117;SDS011;69424;48.770;-1.564;2023-05-07T03:42:43;1.80;;;1.40;;
80117;SDS011;69424;48.770;-1.564;2023-05-07T03:45:12;1.30;;;1.20;;
80117;SDS011;69424;48.770;-1.564;2023-05-07T03:47:42;4.50;;;1.70;;
80117;SDS011;69424;48.770;-1.564;2023-05-07T03:50:12;1.60;;;1.50;;
80117;SDS011;69424;48.770;-1.564;2023-05-07T03:52:40;2.20;;;1.10;;
80117;SDS011;69424;48.770;-1.564;2023-05-07T03:55:09;2.40;;;2.20;;
80117;SDS011;69424;48.770;-1.564;2023-05-07T03:57:38;3.00;;;2.30;;
80117;SDS011;69424;48.770;-1.564;2023-05-07T04:00:06;2.00;;;1.80;;
80117;SDS011;69424;48.770;-1.564;2023-05-07T04:02:46;3.50;;;2.60;;
80117;SDS011;69424;48.770;-1.564;2023-05-07T04:05:18;3.90;;;2.60;;
80117;SDS011;69424;48.770;-1.564;2023-05-07T04:07:48;4.10;;;3.10;;
80117;SDS011;69424;48.770;-1.564;2023-05-07T04:10:18;3.20;;;2.50;;
80117;SDS011;69424;48.770;-1.564;2023-05-07T04:12:47;3.10;;;2.50;;
80117;SDS011;69424;48.770;-1.564;2023-05-07T04:15:19;2.90;;;1.50;;
80117;SDS011;69424;48.770;-1.564;2023-05-07T04:17:48;1.70;;;1.60;;
80117;SDS011;69424;48.770;-1.564;2023-05-07T04:20:17;1.80;;;1.50;;
80117;SDS011;69424;48.770;-1.564;2023-05-07T04:22:49;2.70;;;2.00;;
80117;SDS011;69424;48.770;-1.564;2023-05-07T04:25:17;2.70;;;1.90;;
80117;SDS011;69424;48.770;-1.564;2023-05-07T04:27:45;1.90;;;1.50;;
80117;SDS011;69424;48.770;-1.564;2023-05-07T04:30:13;2.20;;;1.30;;
80117;SDS011;69424;48.770;-1.564;2023-05-07T04:32:42;2.60;;;1.80;;
80117;SDS011;69424;48.770;-1.564;2023-05-07T04:35:12;2.80;;;1.80;;
80117;SDS011;69424;48.770;-1.564;2023-05-07T04:37:40;2.00;;;1.50;;
80117;SDS011;69424;48.770;-1.564;2023-05-07T04:40:09;2.30;;;2.10;;
80117;SDS011;69424;48.770;-1.564;2023-05-07T04:42:38;1.40;;;1.30;;
80117;SDS011;69424;48.770;-1.564;2023-05-07T04:45:06;1.60;;;1.30;;
80117;SDS011;69424;48.770;-1.564;2023-05-07T04:47:37;1.80;;;1.30;;
80117;SDS011;69424;48.770;-1.564;2023-05-07T04:50:06;4.90;;;1.60;;
80117;SDS011;69424;48.770;-1.564;2023-05-07T04:52:35;1.70;;;1.40;;
80117;SDS011;69424;48.770;-1.564;2023-05-07T04:55:04;2.40;;;1.40;;
80117;SDS011;69424;48.770;-1.564;2023-05-07T04:57:36;3.10;;;1.80;;
80117;SDS011;69424;48.770;-1.564;2023-05-07T05:00:05;3.00;;;1.40;;
80117;SDS011;69424;48.770;-1.564;2023-05-07T05:02:36;1.90;;;1.20;;
80117;SDS011;69424;48.770;-1.564;2023-05-07T05:05:05;2.80;;;1.60;;
80117;SDS011;69424;48.770;-1.564;2023-05-07T05:07:35;1.60;;;1.10;;
80117;SDS011;69424;48.770;-1.564;2023-05-07T05:10:04;2.60;;;1.00;;
80117;SDS011;69424;48.770;-1.564;2023-05-07T05:12:34;1.50;;;1.00;;
80117;SDS011;69424;48.770;-1.564;2023-05-07T05:15:02;3.30;;;1.80;;
80117;SDS011;69424;48.770;-1.564;2023-05-07T05:17:32;2.50;;;1.90;;
80117;SDS011;69424;48.770;-1.564;2023-05-07T05:20:03;2.50;;;1.60;;
80117;SDS011;69424;48.770;-1.564;2023-05-07T05:22:32;4.30;;;1.70;;
80117;SDS011;69424;48.770;-1.564;2023-05-07T05:25:01;2.80;;;1.40;;
80117;SDS011;69424;48.770;-1.564;2023-05-07T05:27:30;2.50;;;1.30;;
80117;SDS011;69424;48.770;-1.564;2023-05-07T05:29:58;2.00;;;1.50;;
80117;SDS011;69424;48.770;-1.564;2023-05-07T05:32:28;1.50;;;1.30;;
80117;SDS011;69424;48.770;-1.564;2023-05-07T05:34:56;1.70;;;1.20;;
80117;SDS011;69424;48.770;-1.564;2023-05-07T05:37:25;4.80;;;3.10;;
80117;SDS011;69424;48.770;-1.564;2023-05-07T05:39:53;3.10;;;1.60;;
80117;SDS011;69424;48.770;-1.564;2023-05-07T05:42:23;1.80;;;1.30;;
80117;SDS011;69424;48.770;-1.564;2023-05-07T05:44:51;2.20;;;2.00;;
80117;SDS011;69424;48.770;-1.564;2023-05-07T05:47:19;2.70;;;1.80;;
80117;SDS011;69424;48.770;-1.564;2023-05-07T05:49:48;2.20;;;2.00;;
80117;SDS011;69424;48.770;-1.564;2023-05-07T05:52:16;3.00;;;1.90;;
80117;SDS011;69424;48.770;-1.564;2023-05-07T05:54:46;5.10;;;1.80;;
80117;SDS011;69424;48.770;-1.564;2023-05-07T05:57:14;5.90;;;1.50;;
80117;SDS011;69424;48.770;-1.564;2023-05-07T06:02:15;3.00;;;1.40;;
80117;SDS011;69424;48.770;-1.564;2023-05-07T06:04:43;2.40;;;0.80;;
80117;SDS011;69424;48.770;-1.564;2023-05-07T06:07:14;1.90;;;0.90;;
80117;SDS011;69424;48.770;-1.564;2023-05-07T06:09:42;0.80;;;0.60;;
80117;SDS011;69424;48.770;-1.564;2023-05-07T06:12:10;1.70;;;0.80;;
80117;SDS011;69424;48.770;-1.564;2023-05-07T06:14:39;1.90;;;1.40;;
80117;SDS011;69424;48.770;-1.564;2023-05-07T06:17:08;2.00;;;1.40;;
80117;SDS011;69424;48.770;-1.564;2023-05-07T06:19:37;2.20;;;1.10;;
80117;SDS011;69424;48.770;-1.564;2023-05-07T06:22:05;3.30;;;1.80;;
80117;SDS011;69424;48.770;-1.564;2023-05-07T06:24:34;1.70;;;1.20;;
80117;SDS011;69424;48.770;-1.564;2023-05-07T06:27:02;0.80;;;0.50;;
80117;SDS011;69424;48.770;-1.564;2023-05-07T06:29:30;1.00;;;0.70;;
80117;SDS011;69424;48.770;-1.564;2023-05-07T06:34:36;2.70;;;1.50;;
80117;SDS011;69424;48.770;-1.564;2023-05-07T06:37:05;1.50;;;0.90;;
80117;SDS011;69424;48.770;-1.564;2023-05-07T06:40:02;2.10;;;1.00;;
80117;SDS011;69424;48.770;-1.564;2023-05-07T06:42:31;2.00;;;1.20;;
80117;SDS011;69424;48.770;-1.564;2023-05-07T06:45:06;2.30;;;1.20;;
80117;SDS011;69424;48.770;-1.564;2023-05-07T06:47:35;2.70;;;1.40;;
80117;SDS011;69424;48.770;-1.564;2023-05-07T06:50:03;3.50;;;1.90;;
80117;SDS011;69424;48.770;-1.564;2023-05-07T06:52:32;2.40;;;1.50;;
80117;SDS011;69424;48.770;-1.564;2023-05-07T06:55:01;5.00;;;1.90;;
80117;SDS011;69424;48.770;-1.564;2023-05-07T06:57:29;2.00;;;1.60;;
80117;SDS011;69424;48.770;-1.564;2023-05-07T06:59:57;4.10;;;2.00;;
80117;SDS011;69424;48.770;-1.564;2023-05-07T07:02:26;4.80;;;2.10;;
80117;SDS011;69424;48.770;-1.564;2023-05-07T07:04:55;3.70;;;2.20;;
80117;SDS011;69424;48.770;-1.564;2023-05-07T07:07:23;5.20;;;2.80;;
80117;SDS011;69424;48.770;-1.564;2023-05-07T07:09:51;3.60;;;2.60;;
80117;SDS011;69424;48.770;-1.564;2023-05-07T07:12:19;4.60;;;2.60;;
80117;SDS011;69424;48.770;-1.564;2023-05-07T07:14:47;6.40;;;2.70;;
80117;SDS011;69424;48.770;-1.564;2023-05-07T07:17:15;3.70;;;2.30;;
80117;SDS011;69424;48.770;-1.564;2023-05-07T07:19:43;3.90;;;2.20;;
80117;SDS011;69424;48.770;-1.564;2023-05-07T07:22:11;3.60;;;2.50;;
80117;SDS011;69424;48.770;-1.564;2023-05-07T07:24:40;7.40;;;3.40;;
80117;SDS011;69424;48.770;-1.564;2023-05-07T07:27:09;7.10;;;3.80;;
80117;SDS011;69424;48.770;-1.564;2023-05-07T07:29:37;10.80;;;5.80;;
80117;SDS011;69424;48.770;-1.564;2023-05-07T07:32:05;17.80;;;9.00;;
80117;SDS011;69424;48.770;-1.564;2023-05-07T07:34:34;8.20;;;4.50;;
80117;SDS011;69424;48.770;-1.564;2023-05-07T07:37:03;5.10;;;3.30;;
80117;SDS011;69424;48.770;-1.564;2023-05-07T07:39:34;6.00;;;3.20;;
80117;SDS011;69424;48.770;-1.564;2023-05-07T07:42:03;4.10;;;2.60;;
80117;SDS011;69424;48.770;-1.564;2023-05-07T07:44:31;5.00;;;2.90;;
80117;SDS011;69424;48.770;-1.564;2023-05-07T07:47:03;8.50;;;3.90;;
80117;SDS011;69424;48.770;-1.564;2023-05-07T07:49:31;8.20;;;4.00;;
80117;SDS011;69424;48.770;-1.564;2023-05-07T07:52:02;7.20;;;3.80;;
80117;SDS011;69424;48.770;-1.564;2023-05-07T07:54:31;8.60;;;4.20;;
80117;SDS011;69424;48.770;-1.564;2023-05-07T07:57:00;11.50;;;4.40;;
80117;SDS011;69424;48.770;-1.564;2023-05-07T07:59:31;11.10;;;4.50;;
80117;SDS011;69424;48.770;-1.564;2023-05-07T08:01:59;7.20;;;3.30;;
80117;SDS011;69424;48.770;-1.564;2023-05-07T08:04:28;11.00;;;5.10;;
80117;SDS011;69424;48.770;-1.564;2023-05-07T08:07:00;10.00;;;4.70;;
80117;SDS011;69424;48.770;-1.564;2023-05-07T08:09:29;8.90;;;3.90;;
80117;SDS011;69424;48.770;-1.564;2023-05-07T08:11:58;10.30;;;3.30;;
80117;SDS011;69424;48.770;-1.564;2023-05-07T08:14:26;5.40;;;3.00;;
80117;SDS011;69424;48.770;-1.564;2023-05-07T08:16:56;7.50;;;3.70;;
80117;SDS011;69424;48.770;-1.564;2023-05-07T08:19:25;7.50;;;3.70;;
80117;SDS011;69424;48.770;-1.564;2023-05-07T08:21:53;6.80;;;3.90;;
80117;SDS011;69424;48.770;-1.564;2023-05-07T08:24:24;8.10;;;4.20;;
80117;SDS011;69424;48.770;-1.564;2023-05-07T08:26:52;9.70;;;3.60;;
80117;SDS011;69424;48.770;-1.564;2023-05-07T08:29:20;5.50;;;3.00;;
80117;SDS011;69424;48.770;-1.564;2023-05-07T08:31:48;8.20;;;2.90;;
80117;SDS011;69424;48.770;-1.564;2023-05-07T08:34:16;4.50;;;2.60;;
80117;SDS011;69424;48.770;-1.564;2023-05-07T08:36:45;5.70;;;3.30;;
80117;SDS011;69424;48.770;-1.564;2023-05-07T08:39:17;6.90;;;2.80;;
80117;SDS011;69424;48.770;-1.564;2023-05-07T08:41:46;5.20;;;2.30;;
80117;SDS011;69424;48.770;-1.564;2023-05-07T08:44:16;3.60;;;2.30;;
80117;SDS011;69424;48.770;-1.564;2023-05-07T08:46:49;4.10;;;2.30;;
80117;SDS011;69424;48.770;-1.564;2023-05-07T08:49:22;4.60;;;2.30;;
80117;SDS011;69424;48.770;-1.564;2023-05-07T08:51:50;5.80;;;3.10;;
80117;SDS011;69424;48.770;-1.564;2023-05-07T08:54:20;8.40;;;3.80;;
80117;SDS011;69424;48.770;-1.564;2023-05-07T08:56:49;4.50;;;2.70;;
80117;SDS011;69424;48.770;-1.564;2023-05-07T08:59:18;5.90;;;3.30;;
80117;SDS011;69424;48.770;-1.564;2023-05-07T09:01:46;3.80;;;2.50;;
80117;SDS011;69424;48.770;-1.564;2023-05-07T09:04:14;9.70;;;3.10;;
80117;SDS011;69424;48.770;-1.564;2023-05-07T09:06:43;5.80;;;2.40;;
80117;SDS011;69424;48.770;-1.564;2023-05-07T09:09:14;5.80;;;2.70;;
80117;SDS011;69424;48.770;-1.564;2023-05-07T09:11:45;5.90;;;3.00;;
80117;SDS011;69424;48.770;-1.564;2023-05-07T09:14:14;6.80;;;3.20;;
80117;SDS011;69424;48.770;-1.564;2023-05-07T09:16:43;8.50;;;3.20;;
80117;SDS011;69424;48.770;-1.564;2023-05-07T09:19:11;3.80;;;3.20;;
80117;SDS011;69424;48.770;-1.564;2023-05-07T09:21:43;6.40;;;3.30;;
80117;SDS011;69424;48.770;-1.564;2023-05-07T09:24:14;4.80;;;3.00;;
80117;SDS011;69424;48.770;-1.564;2023-05-07T09:26:44;5.10;;;2.90;;
80117;SDS011;69424;48.770;-1.564;2023-05-07T09:29:15;5.60;;;3.10;;
80117;SDS011;69424;48.770;-1.564;2023-05-07T09:31:45;6.10;;;3.10;;
80117;SDS011;69424;48.770;-1.564;2023-05-07T09:34:15;6.20;;;2.50;;
80117;SDS011;69424;48.770;-1.564;2023-05-07T09:36:45;7.20;;;2.50;;
80117;SDS011;69424;48.770;-1.564;2023-05-07T09:39:13;11.30;;;3.20;;
80117;SDS011;69424;48.770;-1.564;2023-05-07T09:41:48;8.10;;;2.60;;
80117;SDS011;69424;48.770;-1.564;2023-05-07T09:44:32;5.40;;;2.40;;
80117;SDS011;69424;48.770;-1.564;2023-05-07T09:47:01;4.20;;;2.20;;
80117;SDS011;69424;48.770;-1.564;2023-05-07T09:49:37;3.40;;;2.00;;
80117;SDS011;69424;48.770;-1.564;2023-05-07T09:52:11;4.60;;;2.50;;
80117;SDS011;69424;48.770;-1.564;2023-05-07T09:54:45;3.30;;;2.40;;
80117;SDS011;69424;48.770;-1.564;2023-05-07T09:59:49;3.50;;;2.10;;
80117;SDS011;69424;48.770;-1.564;2023-05-07T10:02:20;7.20;;;2.90;;
80117;SDS011;69424;48.770;-1.564;2023-05-07T10:04:51;4.40;;;2.00;;
80117;SDS011;69424;48.770;-1.564;2023-05-07T10:07:24;3.80;;;2.30;;
80117;SDS011;69424;48.770;-1.564;2023-05-07T10:09:55;3.30;;;2.10;;
80117;SDS011;69424;48.770;-1.564;2023-05-07T10:12:31;3.90;;;2.70;;
80117;SDS011;69424;48.770;-1.564;2023-05-07T10:15:09;4.60;;;2.90;;
80117;SDS011;69424;48.770;-1.564;2023-05-07T10:17:39;4.00;;;2.50;;
80117;SDS011;69424;48.770;-1.564;2023-05-07T10:20:09;5.60;;;3.00;;
80117;SDS011;69424;48.770;-1.564;2023-05-07T10:22:41;5.00;;;3.70;;
80117;SDS011;69424;48.770;-1.564;2023-05-07T10:25:26;3.60;;;2.90;;
80117;SDS011;69424;48.770;-1.564;2023-05-07T10:28:04;6.80;;;4.40;;
80117;SDS011;69424;48.770;-1.564;2023-05-07T10:33:10;7.30;;;3.60;;
80117;SDS011;69424;48.770;-1.564;2023-05-07T10:35:44;6.20;;;4.10;;
80117;SDS011;69424;48.770;-1.564;2023-05-07T10:38:15;5.60;;;4.30;;
80117;SDS011;69424;48.770;-1.564;2023-05-07T10:40:44;6.00;;;3.60;;
80117;SDS011;69424;48.770;-1.564;2023-05-07T10:43:16;6.90;;;4.20;;
80117;SDS011;69424;48.770;-1.564;2023-05-07T10:46:22;6.10;;;4.90;;
80117;SDS011;69424;48.770;-1.564;2023-05-07T10:51:47;7.40;;;4.40;;
80117;SDS011;69424;48.770;-1.564;2023-05-07T10:55:19;6.60;;;5.00;;
80117;SDS011;69424;48.770;-1.564;2023-05-07T10:58:27;5.60;;;3.70;;
80117;SDS011;69424;48.770;-1.564;2023-05-07T11:01:16;8.80;;;4.40;;
80117;SDS011;69424;48.770;-1.564;2023-05-07T11:04:28;9.50;;;5.60;;
80117;SDS011;69424;48.770;-1.564;2023-05-07T11:07:27;6.50;;;4.60;;
80117;SDS011;69424;48.770;-1.564;2023-05-07T11:10:01;9.10;;;5.20;;
80117;SDS011;69424;48.770;-1.564;2023-05-07T11:15:13;8.10;;;4.60;;
80117;SDS011;69424;48.770;-1.564;2023-05-07T11:17:57;7.10;;;4.10;;
80117;SDS011;69424;48.770;-1.564;2023-05-07T11:20:51;8.40;;;4.30;;
80117;SDS011;69424;48.770;-1.564;2023-05-07T11:26:28;4.90;;;3.90;;
80117;SDS011;69424;48.770;-1.564;2023-05-07T11:28:59;5.80;;;3.80;;
80117;SDS011;69424;48.770;-1.564;2023-05-07T11:31:28;7.40;;;4.40;;
80117;SDS011;69424;48.770;-1.564;2023-05-07T11:33:58;11.00;;;5.00;;
80117;SDS011;69424;48.770;-1.564;2023-05-07T11:36:30;5.80;;;4.40;;
80117;SDS011;69424;48.770;-1.564;2023-05-07T11:39:00;6.90;;;4.10;;
80117;SDS011;69424;48.770;-1.564;2023-05-07T11:41:35;6.40;;;4.20;;
80117;SDS011;69424;48.770;-1.564;2023-05-07T11:44:04;7.20;;;4.50;;
80117;SDS011;69424;48.770;-1.564;2023-05-07T11:46:32;8.40;;;4.30;;
80117;SDS011;69424;48.770;-1.564;2023-05-07T11:49:01;7.90;;;4.60;;
80117;SDS011;69424;48.770;-1.564;2023-05-07T11:51:29;8.30;;;5.30;;
80117;SDS011;69424;48.770;-1.564;2023-05-07T11:53:58;8.30;;;5.30;;
80117;SDS011;69424;48.770;-1.564;2023-05-07T11:56:26;6.70;;;4.60;;
80117;SDS011;69424;48.770;-1.564;2023-05-07T11:58:54;6.80;;;4.00;;
80117;SDS011;69424;48.770;-1.564;2023-05-07T12:01:22;8.90;;;4.80;;
80117;SDS011;69424;48.770;-1.564;2023-05-07T12:03:50;7.70;;;4.00;;
80117;SDS011;69424;48.770;-1.564;2023-05-07T12:06:18;8.70;;;5.40;;
80117;SDS011;69424;48.770;-1.564;2023-05-07T12:08:47;8.90;;;4.70;;
80117;SDS011;69424;48.770;-1.564;2023-05-07T12:11:18;13.40;;;6.00;;
80117;SDS011;69424;48.770;-1.564;2023-05-07T12:13:51;16.50;;;7.80;;
80117;SDS011;69424;48.770;-1.564;2023-05-07T12:16:25;7.90;;;3.60;;
80117;SDS011;69424;48.770;-1.564;2023-05-07T12:18:54;5.00;;;2.60;;
80117;SDS011;69424;48.770;-1.564;2023-05-07T12:21:23;7.30;;;2.90;;
80117;SDS011;69424;48.770;-1.564;2023-05-07T12:23:52;9.20;;;2.70;;
80117;SDS011;69424;48.770;-1.564;2023-05-07T12:26:20;5.70;;;1.90;;
80117;SDS011;69424;48.770;-1.564;2023-05-07T12:28:50;6.40;;;2.30;;
80117;SDS011;69424;48.770;-1.564;2023-05-07T12:31:18;6.60;;;2.00;;
80117;SDS011;69424;48.770;-1.564;2023-05-07T12:33:46;7.30;;;2.70;;
80117;SDS011;69424;48.770;-1.564;2023-05-07T12:36:14;7.00;;;2.20;;
80117;SDS011;69424;48.770;-1.564;2023-05-07T12:38:43;8.70;;;2.50;;
80117;SDS011;69424;48.770;-1.564;2023-05-07T12:41:11;5.00;;;1.90;;
80117;SDS011;69424;48.770;-1.564;2023-05-07T12:43:42;6.40;;;1.80;;
80117;SDS011;69424;48.770;-1.564;2023-05-07T12:46:11;8.40;;;2.20;;
80117;SDS011;69424;48.770;-1.564;2023-05-07T12:48:46;10.20;;;1.90;;
80117;SDS011;69424;48.770;-1.564;2023-05-07T12:51:14;6.00;;;1.80;;
80117;SDS011;69424;48.770;-1.564;2023-05-07T12:53:45;6.90;;;1.60;;
80117;SDS011;69424;48.770;-1.564;2023-05-07T12:56:15;7.30;;;1.70;;
80117;SDS011;69424;48.770;-1.564;2023-05-07T12:58:43;7.50;;;1.90;;
80117;SDS011;69424;48.770;-1.564;2023-05-07T13:01:11;10.40;;;1.90;;
80117;SDS011;69424;48.770;-1.564;2023-05-07T13:03:44;4.70;;;1.50;;
80117;SDS011;69424;48.770;-1.564;2023-05-07T13:06:16;12.20;;;1.90;;
80117;SDS011;69424;48.770;-1.564;2023-05-07T13:08:45;6.70;;;1.80;;
80117;SDS011;69424;48.770;-1.564;2023-05-07T13:11:13;4.00;;;1.50;;
80117;SDS011;69424;48.770;-1.564;2023-05-07T13:13:41;7.10;;;1.70;;
80117;SDS011;69424;48.770;-1.564;2023-05-07T13:16:10;6.80;;;1.60;;
80117;SDS011;69424;48.770;-1.564;2023-05-07T13:18:39;8.10;;;1.60;;
80117;SDS011;69424;48.770;-1.564;2023-05-07T13:21:08;7.20;;;2.00;;
80117;SDS011;69424;48.770;-1.564;2023-05-07T13:23:37;6.60;;;1.60;;
80117;SDS011;69424;48.770;-1.564;2023-05-07T13:26:06;7.20;;;1.90;;
80117;SDS011;69424;48.770;-1.564;2023-05-07T13:28:53;7.60;;;1.80;;
80117;SDS011;69424;48.770;-1.564;2023-05-07T13:31:22;6.40;;;1.70;;
80117;SDS011;69424;48.770;-1.564;2023-05-07T13:33:51;3.80;;;1.40;;
80117;SDS011;69424;48.770;-1.564;2023-05-07T13:36:20;5.10;;;1.70;;
80117;SDS011;69424;48.770;-1.564;2023-05-07T13:38:48;6.10;;;2.00;;
80117;SDS011;69424;48.770;-1.564;2023-05-07T13:41:19;7.70;;;1.50;;
80117;SDS011;69424;48.770;-1.564;2023-05-07T13:43:48;7.30;;;1.80;;
80117;SDS011;69424;48.770;-1.564;2023-05-07T13:46:16;6.80;;;1.80;;
80117;SDS011;69424;48.770;-1.564;2023-05-07T13:48:45;5.60;;;1.40;;
80117;SDS011;69424;48.770;-1.564;2023-05-07T13:51:13;5.30;;;1.40;;
80117;SDS011;69424;48.770;-1.564;2023-05-07T13:53:41;4.70;;;1.00;;
80117;SDS011;69424;48.770;-1.564;2023-05-07T13:56:09;5.70;;;1.40;;
80117;SDS011;69424;48.770;-1.564;2023-05-07T13:58:37;6.50;;;1.50;;
80117;SDS011;69424;48.770;-1.564;2023-05-07T14:01:23;4.70;;;1.40;;
80117;SDS011;69424;48.770;-1.564;2023-05-07T14:03:51;5.70;;;1.30;;
80117;SDS011;69424;48.770;-1.564;2023-05-07T14:06:19;3.90;;;1.10;;
80117;SDS011;69424;48.770;-1.564;2023-05-07T14:08:48;6.30;;;2.30;;
80117;SDS011;69424;48.770;-1.564;2023-05-07T14:11:17;6.20;;;1.40;;
80117;SDS011;69424;48.770;-1.564;2023-05-07T14:13:45;3.80;;;1.30;;
80117;SDS011;69424;48.770;-1.564;2023-05-07T14:16:13;4.70;;;1.10;;
80117;SDS011;69424;48.770;-1.564;2023-05-07T14:18:41;6.10;;;1.10;;
80117;SDS011;69424;48.770;-1.564;2023-05-07T14:21:09;3.80;;;1.20;;
80117;SDS011;69424;48.770;-1.564;2023-05-07T14:23:37;4.00;;;1.20;;
80117;SDS011;69424;48.770;-1.564;2023-05-07T14:26:05;6.00;;;1.30;;
80117;SDS011;69424;48.770;-1.564;2023-05-07T14:28:33;5.60;;;1.20;;
80117;SDS011;69424;48.770;-1.564;2023-05-07T14:31:01;5.10;;;1.30;;
80117;SDS011;69424;48.770;-1.564;2023-05-07T14:33:30;4.30;;;1.40;;
80117;SDS011;69424;48.770;-1.564;2023-05-07T14:35:58;4.90;;;1.40;;
80117;SDS011;69424;48.770;-1.564;2023-05-07T14:38:26;3.00;;;1.20;;
80117;SDS011;69424;48.770;-1.564;2023-05-07T14:40:54;5.80;;;1.80;;
80117;SDS011;69424;48.770;-1.564;2023-05-07T14:43:23;7.00;;;1.30;;
80117;SDS011;69424;48.770;-1.564;2023-05-07T14:45:52;5.00;;;1.30;;
80117;SDS011;69424;48.770;-1.564;2023-05-07T14:48:20;5.40;;;1.50;;
80117;SDS011;69424;48.770;-1.564;2023-05-07T14:50:48;5.00;;;1.30;;
80117;SDS011;69424;48.770;-1.564;2023-05-07T14:53:16;5.70;;;1.80;;
80117;SDS011;69424;48.770;-1.564;2023-05-07T14:55:44;11.30;;;1.80;;
80117;SDS011;69424;48.770;-1.564;2023-05-07T14:58:12;7.90;;;1.40;;
80117;SDS011;69424;48.770;-1.564;2023-05-07T15:00:40;7.00;;;1.40;;
80117;SDS011;69424;48.770;-1.564;2023-05-07T15:03:09;3.50;;;1.30;;
80117;SDS011;69424;48.770;-1.564;2023-05-07T15:05:40;6.50;;;1.60;;
80117;SDS011;69424;48.770;-1.564;2023-05-07T15:08:09;7.20;;;1.50;;
80117;SDS011;69424;48.770;-1.564;2023-05-07T15:10:37;4.60;;;1.70;;